Kasagimaru — JJ3905 — position and weather

sailwx.info

Track history (hours):
 
Tides and Currents Weather Stations Pressure Air Temp Water Temp Dewpoint Dewpoint Depression Visibility Wind Speed Wind Dir Waves Ship Positions

Kasagimaru

Last reported at 2015-Apr-01 13:33 UTC. Time now 2015-Apr-01 14:33 UTC.
Position N 34°33' E 135°27'.

Length 42 m; draft 3.5 m.

Type: Tug. MMSI: 431300268.

Date/timePositionNaut miles runAvg speedWind from/ knotsBaromVisibWave heightAir tempDewpointWater temp
2015-Apr-01 13:33N 34°33' E 135°27'0 0.0
2015-Apr-01 12:27N 34°33' E 135°27'0 0.0
2015-Apr-01 11:32N 34°33' E 135°27'2 2.5
2015-Apr-01 10:33N 34°32' E 135°24'2 1.2
2015-Apr-01 08:31N 34°33' E 135°27'0 0.0
2015-Apr-01 07:32N 34°33' E 135°27'0 0.0
2015-Apr-01 06:21N 34°33' E 135°27'0 0.0
2015-Apr-01 05:33N 34°33' E 135°27'0 0.0
2015-Apr-01 04:33N 34°33' E 135°27'0 0.1
2015-Apr-01 03:33N 34°33' E 135°27'0 0.0
2015-Apr-01 02:30N 34°33' E 135°27'0 0.2
2015-Apr-01 01:32N 34°33' E 135°27'0 0.4
2015-Apr-01 00:29N 34°33' E 135°26'4 3.7
2015-Mar-31 23:28N 34°33' E 135°21'4 3.9
2015-Mar-31 22:33N 34°33' E 135°26'1 0.2
2015-Mar-31 18:33N 34°33' E 135°27'0 0.0
2015-Mar-31 16:21N 34°33' E 135°27'0 0.0
2015-Mar-31 15:32N 34°33' E 135°27'0 0.0
2015-Mar-31 14:33N 34°33' E 135°27'0 0.0
2015-Mar-31 13:33N 34°33' E 135°27'0 0.0
2015-Mar-31 12:24N 34°33' E 135°27'0 0.0
2015-Mar-31 10:32N 34°33' E 135°27'0 0.0
2015-Mar-31 08:31N 34°33' E 135°27'0 0.0
2015-Mar-31 07:32N 34°33' E 135°27'0 0.0
2015-Mar-31 06:29N 34°33' E 135°27'1 0.5
2015-Mar-31 05:18N 34°34' E 135°26'2 1.8
2015-Mar-31 04:26N 34°33' E 135°24'3 3.6
2015-Mar-31 03:33N 34°33' E 135°20'5 2.3
2015-Mar-31 01:19N 34°33' E 135°27'0 0.0
2015-Mar-31 00:32N 34°33' E 135°27'0 0.0
2015-Mar-30 23:33N 34°33' E 135°27'0 0.0
2015-Mar-30 22:33N 34°33' E 135°27'0 0.0
2015-Mar-30 21:33N 34°33' E 135°27'0 0.0
2015-Mar-30 20:33N 34°33' E 135°27'0 0.0
2015-Mar-30 19:33N 34°33' E 135°27'0 0.0
2015-Mar-30 18:33N 34°33' E 135°27'0 0.0
2015-Mar-30 17:33N 34°33' E 135°27'0 0.0
2015-Mar-30 16:33N 34°33' E 135°27'0 0.0
2015-Mar-30 15:28N 34°33' E 135°27'0 0.0
2015-Mar-30 14:33N 34°33' E 135°27'0 0.0
2015-Mar-30 13:33N 34°33' E 135°27'0 0.0
2015-Mar-30 12:33N 34°33' E 135°27'0 0.0
2015-Mar-30 11:32N 34°33' E 135°27'0 0.0
2015-Mar-30 10:29N 34°33' E 135°27'0 0.0
2015-Mar-30 08:30N 34°33' E 135°27'1 1.4
2015-Mar-30 07:33N 34°33' E 135°25'1211.8
2015-Mar-30 06:30N 34°25' E 135°14'1312.3
2015-Mar-30 05:24N 34°18' E 135°00'7 7.8
2015-Mar-30 04:26N 34°25' E 135°04'1213.8
2015-Mar-30 03:33N 34°32' E 135°16'7 7.2
2015-Mar-30 02:31N 34°34' E 135°24'1 0.7
2015-Mar-30 01:31N 34°34' E 135°24'3 2.6
2015-Mar-30 00:33N 34°33' E 135°27'0 0.0
2015-Mar-29 23:31N 34°33' E 135°27'0 0.0
2015-Mar-29 22:33N 34°33' E 135°27'0 0.0
2015-Mar-29 21:29N 34°33' E 135°27'0 0.0
2015-Mar-29 20:33N 34°33' E 135°27'0 0.0
2015-Mar-29 19:32N 34°33' E 135°27'0 0.0
2015-Mar-29 17:34N 34°33' E 135°27'0 0.0
2015-Mar-29 16:33N 34°33' E 135°27'0 0.0
2015-Mar-29 15:33N 34°33' E 135°27'0 0.0
2015-Mar-29 14:33N 34°33' E 135°27'0 0.0
2015-Mar-29 13:34N 34°33' E 135°27'0 0.0
2015-Mar-29 12:34N 34°33' E 135°27'0 0.0
2015-Mar-29 11:33N 34°33' E 135°27'0 0.0
2015-Mar-29 10:32N 34°33' E 135°27'0 0.0
2015-Mar-29 09:33N 34°33' E 135°27'0 0.0
2015-Mar-29 08:27N 34°33' E 135°27'0 0.0
2015-Mar-29 07:32N 34°33' E 135°27'0 0.0
2015-Mar-29 06:31N 34°33' E 135°27'0 0.0
2015-Mar-29 05:32N 34°33' E 135°27'0 0.0
2015-Mar-29 04:34N 34°33' E 135°27'0 0.0
2015-Mar-29 03:33N 34°33' E 135°27'2 2.1
2015-Mar-29 02:33N 34°34' E 135°24'1 0.6
2015-Mar-29 01:31N 34°33' E 135°24'6 6.3
2015-Mar-29 00:34N 34°32' E 135°17'2211.0
2015-Mar-28 22:33N 34°15' E 134°60'7 7.1
2015-Mar-28 21:33N 34°13' E 135°08'1 0.0
2015-Mar-28 10:24N 34°13' E 135°08'910.4
2015-Mar-28 09:32N 34°16' E 134°58'1413.6
2015-Mar-28 08:31N 34°29' E 135°05'6 6.6
2015-Mar-28 07:33N 34°35' E 135°04'13 1.8
2015-Mar-28 00:07N 34°41' E 134°50'9 0.5
2015-Mar-27 04:03N 34°34' E 134°43'1213.6
2015-Mar-27 03:08N 34°37' E 134°58'711.0
2015-Mar-27 02:32N 34°36' E 135°05'6 6.0
2015-Mar-27 01:33N 34°30' E 135°06'1512.1
2015-Mar-27 00:19N 34°16' E 134°59'6 7.0
2015-Mar-26 23:31N 34°10' E 135°00'10 9.0
2015-Mar-26 22:28N 34°19' E 135°05'1112.3
2015-Mar-26 21:33N 34°25' E 135°16'1111.5
2015-Mar-26 20:33N 34°33' E 135°26'1 0.1
2015-Mar-26 15:15N 34°33' E 135°27'0 0.0
2015-Mar-26 14:34N 34°33' E 135°27'0 0.0
2015-Mar-26 13:33N 34°33' E 135°27'0 0.0
2015-Mar-26 12:33N 34°33' E 135°27'0 0.0
2015-Mar-26 11:34N 34°33' E 135°27'0 0.0
2015-Mar-26 10:34N 34°33' E 135°27'0 0.0
2015-Mar-26 09:33N 34°33' E 135°27'0 0.0
2015-Mar-26 08:33N 34°33' E 135°27'0 0.0
2015-Mar-26 07:33N 34°33' E 135°27'0 0.0
2015-Mar-26 06:33N 34°33' E 135°27'0 0.0
2015-Mar-26 05:34N 34°33' E 135°27'0 0.0
2015-Mar-26 04:33N 34°33' E 135°27'0 0.0
2015-Mar-26 03:33N 34°33' E 135°27'10 9.8
2015-Mar-26 02:33N 34°35' E 135°15'1512.2
2015-Mar-26 01:19N 34°37' E 134°57'13 3.3
2015-Mar-25 21:19N 34°41' E 134°41'8 6.5
2015-Mar-25 20:09N 34°39' E 134°50'610.3
2015-Mar-25 19:32N 34°38' E 134°58'1111.5
2015-Mar-25 18:33N 34°35' E 135°11'1212.3
2015-Mar-25 17:33N 34°33' E 135°26'1 0.2
2015-Mar-25 14:17N 34°33' E 135°27'0 0.0
2015-Mar-25 11:15N 34°33' E 135°27'0 0.0
2015-Mar-25 10:28N 34°33' E 135°27'0 0.0
2015-Mar-25 08:10N 34°33' E 135°27'4 5.3
2015-Mar-25 07:29N 34°31' E 135°23'4 0.7
2015-Mar-25 02:33N 34°33' E 135°27'0 0.0
2015-Mar-25 01:24N 34°33' E 135°27'0 0.0
2015-Mar-24 23:25N 34°33' E 135°27'3 3.1
2015-Mar-24 22:33N 34°33' E 135°23'0 0.4
2015-Mar-24 21:33N 34°32' E 135°24'2 2.1
2015-Mar-24 20:24N 34°33' E 135°27'0 0.0
2015-Mar-24 19:33N 34°33' E 135°27'0 0.0
2015-Mar-24 18:33N 34°33' E 135°27'0 0.0
2015-Mar-24 17:33N 34°33' E 135°27'0 0.0
2015-Mar-24 16:33N 34°33' E 135°27'0 0.0
2015-Mar-24 15:33N 34°33' E 135°27'0 0.0
2015-Mar-24 14:33N 34°33' E 135°27'0 0.0
2015-Mar-24 12:18N 34°33' E 135°27'0 0.0
2015-Mar-24 09:25N 34°33' E 135°27'0 0.0
2015-Mar-24 08:18N 34°33' E 135°27'0 0.0
2015-Mar-24 07:14N 34°33' E 135°27'0 0.0
2015-Mar-24 04:15N 34°33' E 135°27'0 0.0
2015-Mar-24 03:33N 34°33' E 135°27'0 0.0
2015-Mar-24 02:15N 34°33' E 135°27'0 0.0
2015-Mar-24 01:32N 34°33' E 135°27'2 1.9
2015-Mar-24 00:29N 34°34' E 135°24'3 3.3
2015-Mar-23 23:32N 34°33' E 135°21'5 4.5
2015-Mar-23 22:31N 34°33' E 135°26'1 0.2
2015-Mar-23 19:33N 34°33' E 135°27'0 0.0
2015-Mar-23 18:33N 34°33' E 135°27'0 0.0
2015-Mar-23 17:33N 34°33' E 135°27'0 0.0
2015-Mar-23 13:27N 34°33' E 135°27'0 0.0
2015-Mar-23 12:28N 34°33' E 135°27'0 0.0
2015-Mar-23 10:27N 34°33' E 135°27'0 0.0
2015-Mar-23 09:33N 34°33' E 135°27'3 3.1
2015-Mar-23 08:30N 34°32' E 135°23'1111.7
2015-Mar-23 07:33N 34°24' E 135°14'1110.8
2015-Mar-23 06:31N 34°17' E 135°03'6 5.2
2015-Mar-23 05:25N 34°22' E 135°00'1314.5
2015-Mar-23 04:33N 34°29' E 135°13'10 9.8
2015-Mar-23 03:33N 34°34' E 135°24'0 0.5
2015-Mar-23 02:33N 34°34' E 135°24'3 2.6
2015-Mar-23 01:33N 34°31' E 135°24'0 0.0
2015-Mar-23 00:32N 34°31' E 135°24'2 1.7
2015-Mar-22 23:32N 34°33' E 135°24'2 1.4
2015-Mar-22 22:12N 34°33' E 135°27'0 0.0
2015-Mar-22 21:32N 34°33' E 135°27'0 0.0
2015-Mar-22 20:33N 34°33' E 135°27'0 0.0
2015-Mar-22 19:04N 34°33' E 135°27'0 0.0
2015-Mar-22 18:33N 34°33' E 135°27'0 0.0
2015-Mar-22 17:33N 34°33' E 135°27'0 0.0
2015-Mar-22 16:33N 34°33' E 135°27'0 0.0
2015-Mar-22 15:32N 34°33' E 135°27'0 0.0
2015-Mar-22 14:25N 34°33' E 135°27'  
Track history (hours):
 
Tides and Currents Weather Stations Pressure Air Temp Water Temp Dewpoint Dewpoint Depression Visibility Wind Speed Wind Dir Waves Ship Positions

Kasagimaru

Last reported at 2015-Apr-01 13:33 UTC. Time now 2015-Apr-01 14:33 UTC.
Position N 34°33' E 135°27'.

Length 42 m; draft 3.5 m.

Type: Tug. MMSI: 431300268.

Date/timePositionNaut miles runAvg speedWind from/ knotsBaromVisibWave heightAir tempDewpointWater temp
2015-Apr-01 13:33N 34°33' E 135°27'0 0.0
2015-Apr-01 12:27N 34°33' E 135°27'0 0.0
2015-Apr-01 11:32N 34°33' E 135°27'2 2.5
2015-Apr-01 10:33N 34°32' E 135°24'2 1.2
2015-Apr-01 08:31N 34°33' E 135°27'0 0.0
2015-Apr-01 07:32N 34°33' E 135°27'0 0.0
2015-Apr-01 06:21N 34°33' E 135°27'0 0.0
2015-Apr-01 05:33N 34°33' E 135°27'0 0.0
2015-Apr-01 04:33N 34°33' E 135°27'0 0.1
2015-Apr-01 03:33N 34°33' E 135°27'0 0.0
2015-Apr-01 02:30N 34°33' E 135°27'0 0.2
2015-Apr-01 01:32N 34°33' E 135°27'0 0.4
2015-Apr-01 00:29N 34°33' E 135°26'4 3.7
2015-Mar-31 23:28N 34°33' E 135°21'4 3.9
2015-Mar-31 22:33N 34°33' E 135°26'1 0.2
2015-Mar-31 18:33N 34°33' E 135°27'0 0.0
2015-Mar-31 16:21N 34°33' E 135°27'0 0.0
2015-Mar-31 15:32N 34°33' E 135°27'0 0.0
2015-Mar-31 14:33N 34°33' E 135°27'0 0.0
2015-Mar-31 13:33N 34°33' E 135°27'0 0.0
2015-Mar-31 12:24N 34°33' E 135°27'0 0.0
2015-Mar-31 10:32N 34°33' E 135°27'0 0.0
2015-Mar-31 08:31N 34°33' E 135°27'0 0.0
2015-Mar-31 07:32N 34°33' E 135°27'0 0.0
2015-Mar-31 06:29N 34°33' E 135°27'1 0.5
2015-Mar-31 05:18N 34°34' E 135°26'2 1.8
2015-Mar-31 04:26N 34°33' E 135°24'3 3.6
2015-Mar-31 03:33N 34°33' E 135°20'5 2.3
2015-Mar-31 01:19N 34°33' E 135°27'0 0.0
2015-Mar-31 00:32N 34°33' E 135°27'0 0.0
2015-Mar-30 23:33N 34°33' E 135°27'0 0.0
2015-Mar-30 22:33N 34°33' E 135°27'0 0.0
2015-Mar-30 21:33N 34°33' E 135°27'0 0.0
2015-Mar-30 20:33N 34°33' E 135°27'0 0.0
2015-Mar-30 19:33N 34°33' E 135°27'0 0.0
2015-Mar-30 18:33N 34°33' E 135°27'0 0.0
2015-Mar-30 17:33N 34°33' E 135°27'0 0.0
2015-Mar-30 16:33N 34°33' E 135°27'0 0.0
2015-Mar-30 15:28N 34°33' E 135°27'0 0.0
2015-Mar-30 14:33N 34°33' E 135°27'0 0.0
2015-Mar-30 13:33N 34°33' E 135°27'0 0.0
2015-Mar-30 12:33N 34°33' E 135°27'0 0.0
2015-Mar-30 11:32N 34°33' E 135°27'0 0.0
2015-Mar-30 10:29N 34°33' E 135°27'0 0.0
2015-Mar-30 08:30N 34°33' E 135°27'1 1.4
2015-Mar-30 07:33N 34°33' E 135°25'1211.8
2015-Mar-30 06:30N 34°25' E 135°14'1312.3
2015-Mar-30 05:24N 34°18' E 135°00'7 7.8
2015-Mar-30 04:26N 34°25' E 135°04'1213.8
2015-Mar-30 03:33N 34°32' E 135°16'7 7.2
2015-Mar-30 02:31N 34°34' E 135°24'1 0.7
2015-Mar-30 01:31N 34°34' E 135°24'3 2.6
2015-Mar-30 00:33N 34°33' E 135°27'0 0.0
2015-Mar-29 23:31N 34°33' E 135°27'0 0.0
2015-Mar-29 22:33N 34°33' E 135°27'0 0.0
2015-Mar-29 21:29N 34°33' E 135°27'0 0.0
2015-Mar-29 20:33N 34°33' E 135°27'0 0.0
2015-Mar-29 19:32N 34°33' E 135°27'0 0.0
2015-Mar-29 17:34N 34°33' E 135°27'0 0.0
2015-Mar-29 16:33N 34°33' E 135°27'0 0.0
2015-Mar-29 15:33N 34°33' E 135°27'0 0.0
2015-Mar-29 14:33N 34°33' E 135°27'0 0.0
2015-Mar-29 13:34N 34°33' E 135°27'0 0.0
2015-Mar-29 12:34N 34°33' E 135°27'0 0.0
2015-Mar-29 11:33N 34°33' E 135°27'0 0.0
2015-Mar-29 10:32N 34°33' E 135°27'0 0.0
2015-Mar-29 09:33N 34°33' E 135°27'0 0.0
2015-Mar-29 08:27N 34°33' E 135°27'0 0.0
2015-Mar-29 07:32N 34°33' E 135°27'0 0.0
2015-Mar-29 06:31N 34°33' E 135°27'0 0.0
2015-Mar-29 05:32N 34°33' E 135°27'0 0.0
2015-Mar-29 04:34N 34°33' E 135°27'0 0.0
2015-Mar-29 03:33N 34°33' E 135°27'2 2.1
2015-Mar-29 02:33N 34°34' E 135°24'1 0.6
2015-Mar-29 01:31N 34°33' E 135°24'6 6.3
2015-Mar-29 00:34N 34°32' E 135°17'2211.0
2015-Mar-28 22:33N 34°15' E 134°60'7 7.1
2015-Mar-28 21:33N 34°13' E 135°08'1 0.0
2015-Mar-28 10:24N 34°13' E 135°08'910.4
2015-Mar-28 09:32N 34°16' E 134°58'1413.6
2015-Mar-28 08:31N 34°29' E 135°05'6 6.6
2015-Mar-28 07:33N 34°35' E 135°04'13 1.8
2015-Mar-28 00:07N 34°41' E 134°50'9 0.5
2015-Mar-27 04:03N 34°34' E 134°43'1213.6
2015-Mar-27 03:08N 34°37' E 134°58'711.0
2015-Mar-27 02:32N 34°36' E 135°05'6 6.0
2015-Mar-27 01:33N 34°30' E 135°06'1512.1
2015-Mar-27 00:19N 34°16' E 134°59'6 7.0
2015-Mar-26 23:31N 34°10' E 135°00'10 9.0
2015-Mar-26 22:28N 34°19' E 135°05'1112.3
2015-Mar-26 21:33N 34°25' E 135°16'1111.5
2015-Mar-26 20:33N 34°33' E 135°26'1 0.1
2015-Mar-26 15:15N 34°33' E 135°27'0 0.0
2015-Mar-26 14:34N 34°33' E 135°27'0 0.0
2015-Mar-26 13:33N 34°33' E 135°27'0 0.0
2015-Mar-26 12:33N 34°33' E 135°27'0 0.0
2015-Mar-26 11:34N 34°33' E 135°27'0 0.0
2015-Mar-26 10:34N 34°33' E 135°27'0 0.0
2015-Mar-26 09:33N 34°33' E 135°27'0 0.0
2015-Mar-26 08:33N 34°33' E 135°27'0 0.0
2015-Mar-26 07:33N 34°33' E 135°27'0 0.0
2015-Mar-26 06:33N 34°33' E 135°27'0 0.0
2015-Mar-26 05:34N 34°33' E 135°27'0 0.0
2015-Mar-26 04:33N 34°33' E 135°27'0 0.0
2015-Mar-26 03:33N 34°33' E 135°27'10 9.8
2015-Mar-26 02:33N 34°35' E 135°15'1512.2
2015-Mar-26 01:19N 34°37' E 134°57'13 3.3
2015-Mar-25 21:19N 34°41' E 134°41'8 6.5
2015-Mar-25 20:09N 34°39' E 134°50'610.3
2015-Mar-25 19:32N 34°38' E 134°58'1111.5
2015-Mar-25 18:33N 34°35' E 135°11'1212.3
2015-Mar-25 17:33N 34°33' E 135°26'1 0.2
2015-Mar-25 14:17N 34°33' E 135°27'0 0.0
2015-Mar-25 11:15N 34°33' E 135°27'0 0.0
2015-Mar-25 10:28N 34°33' E 135°27'0 0.0
2015-Mar-25 08:10N 34°33' E 135°27'4 5.3
2015-Mar-25 07:29N 34°31' E 135°23'4 0.7
2015-Mar-25 02:33N 34°33' E 135°27'0 0.0
2015-Mar-25 01:24N 34°33' E 135°27'0 0.0
2015-Mar-24 23:25N 34°33' E 135°27'3 3.1
2015-Mar-24 22:33N 34°33' E 135°23'0 0.4
2015-Mar-24 21:33N 34°32' E 135°24'2 2.1
2015-Mar-24 20:24N 34°33' E 135°27'0 0.0
2015-Mar-24 19:33N 34°33' E 135°27'0 0.0
2015-Mar-24 18:33N 34°33' E 135°27'0 0.0
2015-Mar-24 17:33N 34°33' E 135°27'0 0.0
2015-Mar-24 16:33N 34°33' E 135°27'0 0.0
2015-Mar-24 15:33N 34°33' E 135°27'0 0.0
2015-Mar-24 14:33N 34°33' E 135°27'0 0.0
2015-Mar-24 12:18N 34°33' E 135°27'0 0.0
2015-Mar-24 09:25N 34°33' E 135°27'0 0.0
2015-Mar-24 08:18N 34°33' E 135°27'0 0.0
2015-Mar-24 07:14N 34°33' E 135°27'0 0.0
2015-Mar-24 04:15N 34°33' E 135°27'0 0.0
2015-Mar-24 03:33N 34°33' E 135°27'0 0.0
2015-Mar-24 02:15N 34°33' E 135°27'0 0.0
2015-Mar-24 01:32N 34°33' E 135°27'2 1.9
2015-Mar-24 00:29N 34°34' E 135°24'3 3.3
2015-Mar-23 23:32N 34°33' E 135°21'5 4.5
2015-Mar-23 22:31N 34°33' E 135°26'1 0.2
2015-Mar-23 19:33N 34°33' E 135°27'0 0.0
2015-Mar-23 18:33N 34°33' E 135°27'0 0.0
2015-Mar-23 17:33N 34°33' E 135°27'0 0.0
2015-Mar-23 13:27N 34°33' E 135°27'0 0.0
2015-Mar-23 12:28N 34°33' E 135°27'0 0.0
2015-Mar-23 10:27N 34°33' E 135°27'0 0.0
2015-Mar-23 09:33N 34°33' E 135°27'3 3.1
2015-Mar-23 08:30N 34°32' E 135°23'1111.7
2015-Mar-23 07:33N 34°24' E 135°14'1110.8
2015-Mar-23 06:31N 34°17' E 135°03'6 5.2
2015-Mar-23 05:25N 34°22' E 135°00'1314.5
2015-Mar-23 04:33N 34°29' E 135°13'10 9.8
2015-Mar-23 03:33N 34°34' E 135°24'0 0.5
2015-Mar-23 02:33N 34°34' E 135°24'3 2.6
2015-Mar-23 01:33N 34°31' E 135°24'0 0.0
2015-Mar-23 00:32N 34°31' E 135°24'2 1.7
2015-Mar-22 23:32N 34°33' E 135°24'2 1.4
2015-Mar-22 22:12N 34°33' E 135°27'0 0.0
2015-Mar-22 21:32N 34°33' E 135°27'0 0.0
2015-Mar-22 20:33N 34°33' E 135°27'0 0.0
2015-Mar-22 19:04N 34°33' E 135°27'0 0.0
2015-Mar-22 18:33N 34°33' E 135°27'0 0.0
2015-Mar-22 17:33N 34°33' E 135°27'0 0.0
2015-Mar-22 16:33N 34°33' E 135°27'0 0.0
2015-Mar-22 15:32N 34°33' E 135°27'0 0.0
2015-Mar-22 14:25N 34°33' E 135°27'  

Dump ship's entire track history